Time;durP1;ratioP1;P1;durP2;ratioP2;P2;SDS_P1;SDS_P2;PMS_P1;PMS_P2;Temp;Humidity;BMP_temperature;BMP_pressure;BME280_temperature;BME280_humidity;BME280_pressure;Samples;Min_cycle;Max_cycle;Signal;HPM_P1;HPM_P2
2021/12/25 00:01:28;;;;;;;11.07;6.10;;;8.40;99.90;;;8.69;100.00;99494.88;4992175;28;20702;-66
2021/12/25 00:03:56;;;;;;;7.13;4.50;;;8.50;99.90;;;8.71;100.00;99485.97;4993765;28;20741;-67
2021/12/25 00:06:24;;;;;;;5.60;4.50;;;8.50;99.90;;;8.72;100.00;99492.81;4993382;28;20660;-69
2021/12/25 00:08:52;;;;;;;5.17;4.50;;;8.50;99.90;;;8.73;100.00;99497.06;4993490;28;20618;-69
2021/12/25 00:11:19;;;;;;;4.90;3.90;;;8.50;99.90;;;8.75;100.00;99487.38;4992883;28;20626;-67
2021/12/25 00:13:45;;;;;;;10.33;4.87;;;8.50;99.90;;;8.78;100.00;99494.91;4993221;28;20636;-69
2021/12/25 00:16:12;;;;;;;8.13;4.50;;;8.60;99.90;;;8.82;100.00;99491.09;4992796;28;20985;-69
2021/12/25 00:18:39;;;;;;;4.93;4.07;;;8.60;99.90;;;8.82;100.00;99491.09;4973257;28;20693;-69
2021/12/25 00:21:08;;;;;;;6.27;4.63;;;8.60;99.90;;;8.85;100.00;99493.47;4991686;28;20676;-68
2021/12/25 00:23:37;;;;;;;5.50;4.23;;;8.70;99.90;;;8.87;100.00;99493.34;4986898;28;20640;-69
2021/12/25 00:26:13;;;;;;;10.90;4.17;;;8.70;99.90;;;8.88;100.00;99489.81;4990564;28;20650;-69
2021/12/25 00:31:28;;;;;;;3.80;3.30;;;8.70;99.90;;;8.92;100.00;99470.38;5006608;28;20621;-69
2021/12/25 00:34:01;;;;;;;3.53;3.20;;;8.70;99.90;;;8.93;100.00;99477.22;4973012;28;20742;-70
2021/12/25 00:36:27;;;;;;;3.93;3.10;;;8.70;99.90;;;8.91;100.00;99482.56;4971376;28;21215;-69
2021/12/25 00:38:55;;;;;;;4.10;3.37;;;8.70;99.90;;;8.92;100.00;99480.78;4989447;28;20677;-67
2021/12/25 00:41:24;;;;;;;4.10;3.50;;;8.70;99.90;;;8.94;100.00;99476.28;4992325;28;21178;-67
2021/12/25 00:43:52;;;;;;;4.10;3.63;;;8.70;99.90;;;8.94;100.00;99476.28;4990531;28;20685;-66
2021/12/25 00:46:19;;;;;;;4.77;3.47;;;8.70;99.90;;;8.92;100.00;99473.78;4954377;28;20607;-69
2021/12/25 00:48:46;;;;;;;5.30;3.53;;;8.70;99.90;;;8.91;100.00;99472.16;4988889;28;21271;-69
2021/12/25 00:51:14;;;;;;;4.27;3.63;;;8.70;99.90;;;8.93;100.00;99464.22;4991784;28;20630;-66
2021/12/25 00:53:41;;;;;;;4.40;3.80;;;8.70;99.90;;;8.92;100.00;99467.78;4989246;28;20673;-67
2021/12/25 00:56:09;;;;;;;4.60;3.87;;;8.70;99.90;;;8.90;100.00;99467.09;4991684;28;21208;-69
2021/12/25 00:58:36;;;;;;;4.63;4.03;;;8.70;99.90;;;8.89;100.00;99468.03;4991449;28;21277;-67
2021/12/25 01:01:03;;;;;;;4.10;3.57;;;8.70;99.90;;;8.88;100.00;99463.78;4991511;28;20983;-67
2021/12/25 01:03:30;;;;;;;3.53;3.10;;;8.60;99.90;;;8.88;100.00;99474.19;4987636;28;20666;-70
2021/12/25 01:05:57;;;;;;;3.77;3.03;;;8.60;99.90;;;8.87;100.00;99473.34;4990776;28;20621;-69
2021/12/25 01:08:24;;;;;;;6.07;3.37;;;8.60;99.90;;;8.85;100.00;99467.47;4990989;28;21240;-69
2021/12/25 01:10:51;;;;;;;3.23;2.93;;;8.60;99.90;;;8.80;100.00;99468.78;4989954;28;21037;-69
2021/12/25 01:13:26;;;;;;;3.73;2.87;;;8.60;99.90;;;8.80;100.00;99463.56;4989622;28;20641;-70
2021/12/25 01:21:30;;;;;;;5.70;4.17;;;8.50;99.90;;;8.73;100.00;99465.06;4984267;28;20981;-69
2021/12/25 01:27:09;;;;;;;3.23;2.90;;;8.50;99.90;;;8.74;100.00;99464.91;4983480;28;21224;-68
2021/12/25 01:30:00;;;;;;;3.67;3.20;;;8.50;99.90;;;8.67;100.00;99468.16;4992216;28;20710;-67
2021/12/25 01:36:22;;;;;;;7.97;4.77;;;8.40;99.90;;;8.62;100.00;99473.75;5019218;22;20700;-64
2021/12/25 01:48:41;;;;;;;5.67;3.80;;;8.50;99.90;;;8.62;100.00;99460.75;4994806;28;20679;-63
2021/12/25 01:51:08;;;;;;;3.40;2.90;;;8.40;99.90;;;8.63;100.00;99462.38;4999244;28;20617;-64
2021/12/25 01:53:38;;;;;;;3.90;3.33;;;8.40;99.90;;;8.59;100.00;99463.56;5008289;28;20722;-64
2021/12/25 01:56:06;;;;;;;5.07;3.50;;;8.40;99.90;;;8.57;100.00;99465.47;4989470;28;20644;-64
2021/12/25 01:58:34;;;;;;;5.13;3.30;;;8.30;99.90;;;8.60;100.00;99462.66;4974715;28;20706;-63
2021/12/25 02:01:07;;;;;;;5.67;4.00;;;8.40;99.90;;;8.61;100.00;99464.28;5001944;28;20640;-64
2021/12/25 02:03:36;;;;;;;6.83;4.97;;;8.40;99.90;;;8.61;100.00;99459.06;5008781;28;20675;-64
2021/12/25 02:06:08;;;;;;;6.87;4.50;;;8.40;99.90;;;8.65;100.00;99463.06;5004280;28;20637;-64
2021/12/25 02:08:37;;;;;;;5.50;4.00;;;8.40;99.90;;;8.66;100.00;99459.53;4990558;28;20628;-63
2021/12/25 02:11:05;;;;;;;4.00;3.43;;;8.50;99.90;;;8.69;100.00;99450.66;4990272;28;20639;-65
2021/12/25 02:13:37;;;;;;;6.00;4.23;;;8.50;99.90;;;8.72;100.00;99453.81;4991651;28;21236;-65
2021/12/25 02:16:11;;;;;;;6.73;4.47;;;8.50;99.90;;;8.74;100.00;99449.31;5003470;28;20637;-64
2021/12/25 02:21:25;;;;;;;6.83;4.33;;;8.50;99.90;;;8.78;100.00;99450.72;4991284;28;20994;-65
2021/12/25 02:23:54;;;;;;;7.37;4.53;;;8.60;99.90;;;8.79;100.00;99444.56;4974460;28;20636;-65
2021/12/25 02:26:24;;;;;;;4.93;3.90;;;8.60;99.90;;;8.82;100.00;99446.06;4989132;28;20630;-64
2021/12/25 02:28:52;;;;;;;5.60;4.27;;;8.60;99.90;;;8.85;100.00;99449.25;4990958;28;20610;-64
2021/12/25 02:31:20;;;;;;;5.07;3.70;;;8.60;99.90;;;8.87;100.00;99441.31;4990447;28;20638;-64
2021/12/25 02:33:47;;;;;;;4.93;3.77;;;8.70;99.90;;;8.87;100.00;99444.75;5005250;28;20644;-64
2021/12/25 02:36:15;;;;;;;4.00;3.57;;;8.70;99.90;;;8.87;100.00;99442.16;5012835;28;20627;-64
2021/12/25 02:38:44;;;;;;;4.30;3.90;;;8.70;99.90;;;8.88;100.00;99442.97;4995982;28;21232;-64
2021/12/25 02:41:11;;;;;;;6.50;4.00;;;8.70;99.90;;;8.88;100.00;99435.97;5014581;28;20612;-64
2021/12/25 02:43:42;;;;;;;5.23;3.93;;;8.70;99.90;;;8.90;100.00;99435.88;5011892;28;20641;-64
2021/12/25 02:46:10;;;;;;;5.17;3.90;;;8.70;99.90;;;8.92;100.00;99429.56;5004183;28;20868;-65
2021/12/25 02:48:38;;;;;;;4.17;3.67;;;8.70;99.90;;;8.93;100.00;99423.41;4990578;28;21230;-65
2021/12/25 02:51:05;;;;;;;5.27;3.90;;;8.70;99.90;;;8.88;100.00;99417.78;5013560;28;20623;-64
2021/12/25 02:53:33;;;;;;;6.30;3.90;;;8.70;99.90;;;8.88;100.00;99420.38;4997357;28;20648;-63
2021/12/25 02:56:00;;;;;;;3.83;3.47;;;8.70;99.90;;;8.88;100.00;99420.38;5013527;28;20637;-66
2021/12/25 02:58:26;;;;;;;6.70;3.90;;;8.70;99.90;;;8.88;100.00;99416.97;5012726;28;20672;-64
2021/12/25 03:01:20;;;;;;;5.80;4.17;;;8.70;99.90;;;8.87;100.00;99407.50;5014038;28;20615;-64
2021/12/25 03:03:48;;;;;;;8.13;5.00;;;8.70;99.90;;;8.88;100.00;99406.56;5011052;28;20637;-63
2021/12/25 03:06:15;;;;;;;5.50;4.37;;;8.70;99.90;;;8.86;100.00;99408.47;5012277;28;21141;-64
2021/12/25 03:08:43;;;;;;;6.10;4.20;;;8.60;99.90;;;8.87;100.00;99403.13;5012738;28;20619;-64
2021/12/25 03:11:14;;;;;;;3.57;3.27;;;8.70;99.90;;;8.86;100.00;99406.66;5005329;28;20646;-64
2021/12/25 03:13:57;;;;;;;5.70;4.00;;;8.70;99.90;;;8.86;100.00;99405.88;5012157;28;21055;-64
2021/12/25 03:16:25;;;;;;;5.20;3.83;;;8.70;99.90;;;8.86;100.00;99411.88;4986414;28;21014;-64
2021/12/25 03:18:55;;;;;;;6.33;4.10;;;8.60;99.90;;;8.86;100.00;99409.28;5017383;28;20661;-64
2021/12/25 03:21:22;;;;;;;7.67;4.00;;;8.60;99.90;;;8.89;100.00;99406.44;4991031;28;20620;-64
2021/12/25 03:23:53;;;;;;;4.90;4.37;;;8.70;99.90;;;8.89;100.00;99406.44;5012891;28;20617;-64
2021/12/25 03:26:21;;;;;;;5.57;4.17;;;8.70;99.90;;;8.90;100.00;99407.25;4992449;28;20700;-63
2021/12/25 03:28:51;;;;;;;5.50;4.07;;;8.70;99.90;;;8.92;100.00;99413.16;4976253;28;20617;-64
2021/12/25 03:31:21;;;;;;;6.50;3.23;;;8.70;99.90;;;8.91;100.00;99414.09;5009656;28;21009;-64
2021/12/25 03:33:53;;;;;;;4.17;3.23;;;8.70;99.90;;;8.90;100.00;99418.47;5012614;28;20625;-64
2021/12/25 03:36:21;;;;;;;4.83;3.70;;;8.70;99.90;;;8.89;100.00;99411.63;5010736;28;20716;-64
2021/12/25 03:38:49;;;;;;;5.97;3.80;;;8.70;99.90;;;8.88;100.00;99407.38;5012973;28;20665;-65
2021/12/25 03:41:18;;;;;;;6.03;3.83;;;8.70;99.90;;;8.90;100.00;99407.25;4995856;28;20691;-64
2021/12/25 03:43:46;;;;;;;5.30;3.80;;;8.70;99.90;;;8.87;100.00;99407.50;5003213;28;21081;-63
2021/12/25 03:46:16;;;;;;;4.30;3.70;;;8.60;99.90;;;8.83;100.00;99406.13;5006884;28;21188;-64
2021/12/25 03:49:06;;;;;;;5.13;3.87;;;8.60;99.90;;;8.83;100.00;99396.53;5012375;28;20695;-64
2021/12/25 04:00:00;;;;;;;4.60;3.27;;;8.50;99.90;;;8.77;100.00;99391.88;5004574;28;20657;-66
2021/12/25 04:02:34;;;;;;;4.20;3.57;;;8.50;99.90;;;8.75;100.00;99385.97;5005902;28;21216;-65
2021/12/25 04:05:05;;;;;;;4.43;3.70;;;8.50;99.90;;;8.76;100.00;99384.16;5011345;28;20703;-65
2021/12/25 04:10:13;;;;;;;6.87;3.77;;;8.50;99.90;;;8.77;100.00;99381.47;4992041;28;20637;-65
2021/12/25 04:12:40;;;;;;;3.97;3.57;;;8.60;99.90;;;8.80;100.00;99385.56;4994178;28;20642;-66
2021/12/25 04:15:07;;;;;;;3.90;3.50;;;8.60;99.90;;;8.80;100.00;99381.19;5011182;28;20655;-66
2021/12/25 04:17:34;;;;;;;4.93;4.00;;;8.60;99.90;;;8.81;100.00;99380.25;5007631;28;20644;-65
2021/12/25 04:20:03;;;;;;;4.73;3.97;;;8.60;99.90;;;8.84;100.00;99372.16;5012418;28;20654;-66
2021/12/25 04:22:41;;;;;;;6.37;4.40;;;8.70;99.90;;;8.87;100.00;99377.13;5008305;28;20967;-65
2021/12/25 04:25:08;;;;;;;6.00;3.97;;;8.70;99.90;;;8.89;100.00;99376.97;4976090;28;20642;-65
2021/12/25 04:27:36;;;;;;;5.77;3.77;;;8.70;99.90;;;8.90;100.00;99382.03;4991390;28;20634;-66
2021/12/25 04:30:19;;;;;;;4.77;3.90;;;8.70;99.90;;;8.92;100.00;99380.13;4975741;28;20618;-65
2021/12/25 05:03:38;;;;;;;4.17;3.77;;;8.80;99.90;;;9.01;100.00;99388.94;5002158;28;20643;-64
2021/12/25 05:06:05;;;;;;;6.03;4.47;;;8.80;99.90;;;9.01;100.00;99378.53;4990762;28;20619;-65
2021/12/25 05:08:32;;;;;;;6.23;4.27;;;8.80;99.90;;;9.02;100.00;99382.78;4990844;28;20660;-66
2021/12/25 05:10:59;;;;;;;9.70;5.40;;;8.80;99.90;;;9.01;100.00;99383.72;4992059;28;20602;-66
2021/12/25 05:13:26;;;;;;;7.73;5.30;;;8.80;99.90;;;9.01;100.00;99379.38;5001977;28;20633;-65
2021/12/25 05:15:53;;;;;;;6.77;5.13;;;8.80;99.90;;;8.99;100.00;99383.88;5006523;28;20661;-65
2021/12/25 05:18:21;;;;;;;5.70;4.50;;;8.80;99.90;;;8.97;100.00;99391.00;5010437;28;20614;-66
2021/12/25 05:20:49;;;;;;;6.60;4.47;;;8.80;99.90;;;8.87;100.00;99382.31;5007372;28;20665;-65
2021/12/25 05:23:16;;;;;;;7.47;5.10;;;8.70;99.90;;;8.87;100.00;99382.31;5007401;28;20655;-66
2021/12/25 05:25:43;;;;;;;7.13;5.30;;;8.70;99.90;;;8.86;100.00;99379.88;5010185;28;20652;-65
2021/12/25 05:28:12;;;;;;;7.40;4.77;;;8.70;99.90;;;8.82;100.00;99384.47;5001339;28;20638;-65
2021/12/25 05:30:40;;;;;;;5.90;4.90;;;8.60;99.90;;;8.78;100.00;99382.25;4990527;28;20652;-65
2021/12/25 05:33:07;;;;;;;8.20;5.47;;;8.50;99.90;;;8.77;100.00;99381.47;5003710;28;20637;-64
2021/12/25 05:35:34;;;;;;;5.80;4.83;;;8.50;99.90;;;8.76;100.00;99390.19;5006540;28;21225;-66
2021/12/25 05:38:01;;;;;;;7.00;4.33;;;8.50;99.90;;;8.74;100.00;99388.69;5001226;28;20638;-65
2021/12/25 05:40:28;;;;;;;5.00;4.10;;;8.50;99.90;;;8.74;100.00;99376.50;4991767;28;20669;-65
2021/12/25 05:42:55;;;;;;;5.03;4.20;;;8.50;99.90;;;8.75;100.00;99378.16;4990967;28;20634;-65
2021/12/25 05:45:22;;;;;;;4.43;3.90;;;8.50;99.90;;;8.77;100.00;99384.06;4991721;28;20669;-66
2021/12/25 05:47:49;;;;;;;5.43;3.93;;;8.60;99.90;;;8.77;100.00;99378.84;5002670;28;20609;-65
2021/12/25 05:50:16;;;;;;;4.37;3.50;;;8.60;99.90;;;8.76;100.00;99377.19;5005711;28;20642;-65
2021/12/25 05:52:43;;;;;;;4.50;3.67;;;8.50;99.90;;;8.76;100.00;99381.56;5009401;28;20724;-66
2021/12/25 05:55:09;;;;;;;6.27;4.57;;;8.50;99.90;;;8.73;100.00;99374.03;4992099;28;20641;-64
2021/12/25 05:57:36;;;;;;;6.53;4.30;;;8.50;99.90;;;8.74;100.00;99371.31;5011570;28;21292;-65
2021/12/25 06:00:06;;;;;;;7.77;4.97;;;8.50;99.90;;;8.78;100.00;99371.84;5009949;28;20657;-65
2021/12/25 06:02:35;;;;;;;7.63;5.50;;;8.60;99.90;;;8.77;100.00;99371.06;5010588;28;20645;-66
2021/12/25 06:05:04;;;;;;;5.23;4.30;;;8.50;99.90;;;8.80;100.00;99373.38;5001667;28;21191;-65
2021/12/25 06:07:31;;;;;;;7.87;5.27;;;8.60;99.90;;;8.80;100.00;99370.78;5011041;28;20624;-65
2021/12/25 06:09:58;;;;;;;5.87;4.40;;;8.60;99.90;;;8.80;100.00;99373.38;5001567;28;20632;-66
2021/12/25 06:12:26;;;;;;;5.03;4.57;;;8.60;99.90;;;8.81;100.00;99369.84;5015231;28;21218;-65
2021/12/25 06:14:54;;;;;;;5.50;4.37;;;8.60;99.90;;;8.83;100.00;99374.91;5012690;28;20663;-65
2021/12/25 06:17:21;;;;;;;6.27;4.30;;;8.60;99.90;;;8.83;100.00;99373.13;5013661;28;20632;-65
2021/12/25 06:19:48;;;;;;;5.87;4.33;;;8.60;99.90;;;8.86;100.00;99378.06;5024907;28;20657;-66
2021/12/25 06:22:15;;;;;;;9.40;5.80;;;8.60;99.90;;;8.87;100.00;99376.28;4994109;28;20985;-66
2021/12/25 06:24:44;;;;;;;4.10;3.70;;;8.70;99.90;;;8.89;100.00;99375.22;5001323;28;20641;-65
2021/12/25 06:27:11;;;;;;;6.53;4.40;;;8.70;99.90;;;8.88;100.00;99367.56;5004416;28;20653;-65
2021/12/25 06:29:37;;;;;;;5.67;4.20;;;8.70;99.90;;;8.88;100.00;99367.56;4995461;28;20610;-65
2021/12/25 06:32:05;;;;;;;4.10;3.73;;;8.70;99.90;;;8.89;100.00;99371.78;5020711;28;21217;-64
2021/12/25 06:34:32;;;;;;;5.00;4.10;;;8.70;99.90;;;8.86;100.00;99370.25;5002043;28;20669;-64
2021/12/25 06:36:59;;;;;;;6.53;4.93;;;8.70;99.90;;;8.88;100.00;99372.75;4994433;28;20720;-64
2021/12/25 06:39:26;;;;;;;7.23;5.30;;;8.60;99.90;;;8.88;100.00;99368.34;4985479;28;20658;-65
2021/12/25 06:41:53;;;;;;;8.87;5.90;;;8.70;99.90;;;8.85;100.00;99370.41;4995021;28;20610;-65
2021/12/25 06:44:23;;;;;;;9.37;6.17;;;8.60;99.90;;;8.83;100.00;99372.31;5007648;28;20656;-65
2021/12/25 06:46:51;;;;;;;6.13;4.53;;;8.60;99.90;;;8.79;100.00;99374.34;5002588;28;20639;-66
2021/12/25 06:49:19;;;;;;;8.80;5.30;;;8.60;99.90;;;8.77;100.00;99371.06;4991199;28;21206;-65
2021/12/25 06:51:48;;;;;;;5.40;4.23;;;8.60;99.90;;;8.75;100.00;99370.38;5013235;28;21241;-65
2021/12/25 06:54:15;;;;;;;8.40;5.47;;;8.50;99.90;;;8.72;100.00;99370.59;4993222;28;20666;-64
2021/12/25 06:56:47;;;;;;;7.37;5.40;;;8.50;99.90;;;8.73;100.00;99377.44;5011768;28;20626;-65
2021/12/25 06:59:15;;;;;;;5.50;4.40;;;8.50;99.90;;;8.74;100.00;99371.31;4978842;28;20662;-65
2021/12/25 07:01:43;;;;;;;7.80;4.00;;;8.50;99.90;;;8.74;100.00;99381.69;4994308;28;20602;-65
2021/12/25 07:04:11;;;;;;;6.13;4.10;;;8.50;99.90;;;8.77;100.00;99384.06;5008685;28;20665;-66
2021/12/25 07:06:40;;;;;;;6.30;4.47;;;8.60;99.90;;;8.78;100.00;99382.25;4993572;28;21196;-65
2021/12/25 07:09:09;;;;;;;10.20;5.57;;;8.60;99.90;;;8.80;100.00;99380.34;5006590;28;21185;-65
2021/12/25 07:11:37;;;;;;;7.17;4.70;;;8.60;99.90;;;8.80;100.00;99386.38;5013895;28;20704;-65
2021/12/25 07:14:07;;;;;;;5.90;5.10;;;8.60;99.90;;;8.78;100.00;99385.69;5005023;28;20664;-66
2021/12/25 07:16:35;;;;;;;8.97;4.77;;;8.60;99.90;;;8.83;100.00;99391.34;5013310;28;20616;-66
2021/12/25 07:19:02;;;;;;;10.83;6.40;;;8.60;99.90;;;8.86;100.00;99395.47;5001609;28;20654;-65
2021/12/25 07:21:30;;;;;;;7.00;4.90;;;8.70;99.90;;;8.84;100.00;99398.19;5009502;28;20643;-66
2021/12/25 07:23:57;;;;;;;8.57;5.40;;;8.60;99.90;;;8.79;100.00;99402.13;5012862;28;20644;-65
2021/12/25 07:26:27;;;;;;;6.20;4.77;;;8.60;99.90;;;8.73;100.00;99403.44;5011713;28;20643;-65
2021/12/25 07:28:54;;;;;;;6.70;5.40;;;8.50;99.90;;;8.66;100.00;99404.94;5012682;28;20629;-65
2021/12/25 07:31:21;;;;;;;5.20;4.70;;;8.50;99.90;;;8.57;100.00;99397.88;5013066;28;20632;-65
2021/12/25 07:36:35;;;;;;;6.50;5.13;;;8.30;99.90;;;8.45;100.00;99407.50;4990815;28;20669;-65
2021/12/25 07:39:03;;;;;;;7.37;5.00;;;8.30;99.90;;;8.42;100.00;99410.38;4993186;28;20617;-63
2021/12/25 07:41:30;;;;;;;6.53;4.80;;;8.20;99.90;;;8.39;100.00;99407.22;4992000;28;20713;-64
2021/12/25 07:43:57;;;;;;;6.47;4.37;;;8.20;99.90;;;8.38;100.00;99415.94;4992887;28;21193;-64
2021/12/25 07:46:24;;;;;;;7.67;5.30;;;8.10;99.90;;;8.43;100.00;99419.00;4973903;28;20980;-64
2021/12/25 07:48:51;;;;;;;4.90;4.03;;;8.20;99.90;;;8.49;100.00;99421.94;4973176;28;20627;-65
2021/12/25 07:51:18;;;;;;;5.33;4.17;;;8.30;99.90;;;8.53;100.00;99419.88;4972563;28;20635;-65
2021/12/25 07:53:45;;;;;;;5.83;4.30;;;8.30;99.90;;;8.51;100.00;99424.41;4972442;28;20619;-65
2021/12/25 07:56:13;;;;;;;6.43;4.73;;;8.30;99.90;;;8.50;100.00;99422.72;4972498;28;20669;-65
2021/12/25 07:58:44;;;;;;;4.40;3.80;;;8.30;99.90;;;8.48;100.00;99430.66;4972186;28;20637;-65
2021/12/25 08:01:11;;;;;;;5.10;4.17;;;8.30;99.90;;;8.43;100.00;99434.59;4972795;28;20677;-66
2021/12/25 08:03:38;;;;;;;7.10;4.20;;;8.20;99.90;;;8.42;100.00;99438.13;4973857;28;21212;-65
2021/12/25 08:06:05;;;;;;;4.73;3.53;;;8.20;99.90;;;8.43;100.00;99442.41;4955244;28;20659;-65
2021/12/25 08:08:33;;;;;;;5.00;4.10;;;8.20;99.90;;;8.40;100.00;99453.03;4971769;28;20692;-65
2021/12/25 08:10:59;;;;;;;4.70;4.10;;;8.20;99.90;;;8.37;100.00;99450.66;4950250;28;21228;-65
2021/12/25 08:13:26;;;;;;;5.40;3.80;;;8.20;99.90;;;8.38;100.00;99447.13;4973258;28;20626;-65
2021/12/25 08:15:53;;;;;;;4.13;3.70;;;8.20;99.90;;;8.38;100.00;99447.97;4972149;28;20665;-65
2021/12/25 08:18:20;;;;;;;5.37;4.37;;;8.20;99.90;;;8.38;100.00;99442.78;4973051;28;20615;-64
2021/12/25 08:20:47;;;;;;;6.73;4.87;;;8.20;99.90;;;8.39;100.00;99439.22;4974375;28;20671;-65
2021/12/25 08:23:14;;;;;;;5.90;4.50;;;8.20;99.90;;;8.37;100.00;99448.06;4972563;28;20643;-64
2021/12/25 08:25:41;;;;;;;5.00;3.83;;;8.20;99.90;;;8.38;100.00;99444.53;4971454;28;20659;-65
2021/12/25 08:28:09;;;;;;;5.47;4.10;;;8.20;99.90;;;8.39;100.00;99448.81;4972408;28;20621;-65
2021/12/25 08:30:36;;;;;;;5.40;3.57;;;8.20;99.90;;;8.37;100.00;99454.09;4971939;28;20615;-64
2021/12/25 08:33:03;;;;;;;2.87;2.27;;;8.20;99.90;;;8.39;100.00;99456.59;4971713;28;20642;-64
2021/12/25 08:35:31;;;;;;;3.70;3.10;;;8.20;99.90;;;8.37;100.00;99459.31;4972541;28;20647;-65
2021/12/25 08:37:58;;;;;;;4.13;3.37;;;8.20;99.90;;;8.38;100.00;99457.53;4971908;28;21014;-64
2021/12/25 08:40:26;;;;;;;4.97;4.43;;;8.20;99.90;;;8.31;100.00;99459.81;4972437;28;20722;-65
2021/12/25 08:42:59;;;;;;;6.33;4.70;;;8.20;99.90;;;8.31;100.00;99457.22;4970633;28;21234;-63
2021/12/25 08:47:59;;;;;;;7.93;5.13;;;8.20;99.90;;;8.38;100.00;99467.94;4970736;28;20623;-63
2021/12/25 08:50:26;;;;;;;6.13;5.03;;;8.30;99.90;;;8.37;100.00;99471.47;4970630;28;20654;-64
2021/12/25 08:52:53;;;;;;;6.40;4.87;;;8.20;99.90;;;8.30;100.00;99470.34;4986590;28;20638;-64
2021/12/25 08:55:20;;;;;;;9.17;6.00;;;8.10;99.90;;;8.29;100.00;99472.09;4967370;28;20802;-64
2021/12/25 08:57:48;;;;;;;7.30;4.33;;;8.10;99.90;;;8.28;100.00;99477.44;4951008;28;20620;-63
2021/12/25 09:00:15;;;;;;;7.17;4.73;;;8.10;99.90;;;8.27;100.00;99471.41;4971000;28;20686;-63
2021/12/25 09:02:42;;;;;;;6.40;5.20;;;8.10;99.90;;;8.25;100.00;99472.44;4971221;28;20711;-66
2021/12/25 09:05:09;;;;;;;5.30;4.10;;;8.00;99.90;;;8.25;100.00;99469.84;4971817;28;21060;-64
2021/12/25 09:07:36;;;;;;;5.03;3.67;;;8.10;99.90;;;8.22;100.00;99481.28;4971562;28;20626;-66
2021/12/25 09:10:04;;;;;;;6.67;4.53;;;8.10;99.90;;;8.17;100.00;99486.06;4970452;28;20644;-65
2021/12/25 09:12:33;;;;;;;5.70;4.67;;;8.00;99.90;;;8.16;100.00;99473.16;4971645;28;20639;-65
2021/12/25 09:15:00;;;;;;;3.10;2.80;;;8.00;99.90;;;8.13;100.00;99483.81;4970424;28;20650;-66
2021/12/25 09:17:27;;;;;;;7.00;3.90;;;8.00;99.90;;;8.12;100.00;99487.34;4969410;28;20987;-65
2021/12/25 09:19:54;;;;;;;5.57;4.00;;;8.00;99.90;;;8.13;100.00;99489.00;4971043;28;20678;-65
2021/12/25 09:22:21;;;;;;;5.97;4.80;;;8.00;99.90;;;8.08;100.00;99493.75;4970636;28;20615;-63
2021/12/25 09:24:48;;;;;;;6.80;4.90;;;7.90;99.90;;;8.00;100.00;99504.75;4970626;28;20750;-63
2021/12/25 09:27:15;;;;;;;6.67;4.40;;;7.90;99.90;;;7.81;100.00;99507.16;4970313;28;20669;-65
2021/12/25 09:29:42;;;;;;;8.20;5.37;;;7.70;99.90;;;7.58;100.00;99511.50;4970494;28;20638;-63
2021/12/25 09:32:09;;;;;;;7.63;5.50;;;7.50;99.90;;;7.58;100.00;99511.50;4971356;28;20631;-66
2021/12/25 09:34:36;;;;;;;6.57;4.33;;;7.40;99.90;;;7.57;100.00;99509.88;4971291;28;20651;-63
2021/12/25 09:37:03;;;;;;;8.57;4.97;;;7.40;99.90;;;7.59;100.00;99518.38;4970611;28;20638;-63
2021/12/25 09:39:31;;;;;;;7.00;4.20;;;7.50;99.90;;;7.59;100.00;99523.56;4971717;28;20615;-63
2021/12/25 09:41:58;;;;;;;5.30;4.10;;;7.40;99.90;;;7.61;100.00;99528.63;4970351;28;21029;-64
2021/12/25 09:44:26;;;;;;;9.00;5.70;;;7.50;99.90;;;7.51;100.00;99530.28;4971344;28;20659;-66
2021/12/25 09:46:53;;;;;;;5.30;3.90;;;7.40;99.90;;;7.55;100.00;99535.13;4975724;28;20718;-63
2021/12/25 09:49:20;;;;;;;7.30;4.80;;;7.40;99.90;;;7.55;100.00;99539.47;4973613;28;21202;-62
2021/12/25 09:51:46;;;;;;;5.43;4.13;;;7.40;99.90;;;7.46;100.00;99540.16;4976331;28;20729;-63
2021/12/25 09:54:15;;;;;;;7.07;4.70;;;7.30;99.90;;;7.43;100.00;99548.22;4973991;28;20649;-64
2021/12/25 09:56:48;;;;;;;6.50;4.90;;;7.30;99.90;;;7.31;100.00;99547.34;4974479;28;21282;-63
2021/12/25 09:59:16;;;;;;;4.20;3.73;;;7.20;99.90;;;7.13;100.00;99553.09;4973534;28;20639;-64
2021/12/25 10:01:48;;;;;;;10.57;6.10;;;7.00;99.90;;;7.08;100.00;99548.25;4975211;28;21294;-63
2021/12/25 10:04:47;;;;;;;7.50;5.10;;;6.90;99.90;;;7.01;100.00;99554.84;4974440;28;21003;-67
2021/12/25 10:07:27;;;;;;;11.37;6.67;;;6.90;99.90;;;6.96;100.00;99549.97;4976052;28;20710;-66
2021/12/25 10:10:16;;;;;;;8.30;5.40;;;6.80;99.90;;;6.95;100.00;99552.69;4958072;28;20726;-67
2021/12/25 10:12:49;;;;;;;9.20;5.73;;;6.80;99.90;;;6.82;100.00;99544.16;4973062;28;20651;-63
2021/12/25 10:15:20;;;;;;;8.10;6.50;;;6.70;99.90;;;6.80;100.00;99551.22;4973694;28;20661;-64
2021/12/25 10:17:53;;;;;;;7.40;5.67;;;6.70;99.90;;;6.78;100.00;99555.69;4958818;28;20607;-64
2021/12/25 10:20:24;;;;;;;2.53;2.13;;;6.70;99.90;;;6.71;99.58;99567.44;4975163;28;20661;-66
2021/12/25 10:23:14;;;;;;;6.57;5.87;;;6.60;99.90;;;6.41;99.93;99557.53;4973516;28;20630;-65
2021/12/25 10:25:52;;;;;;;4.13;3.30;;;6.40;99.90;;;6.42;99.12;99566.13;4957667;28;20635;-65
2021/12/25 10:28:34;;;;;;;6.40;4.70;;;6.40;99.90;;;6.37;99.41;99568.25;4956399;28;20638;-65
2021/12/25 10:31:16;;;;;;;6.40;4.70;;;6.30;99.90;;;6.36;100.00;99558.81;4973799;28;20623;-64
2021/12/25 10:33:52;;;;;;;7.85;4.90;;;6.30;99.90;;;6.44;100.00;99559.91;4954246;28;20212;-63
2021/12/25 10:36:27;;;;;;;8.15;5.05;;;6.30;99.90;;;6.45;100.00;99556.41;4955173;28;20242;-64
2021/12/25 10:39:16;;;;;;;4.70;3.97;;;6.40;99.90;;;6.59;100.00;99564.00;4953847;29;20218;-63
2021/12/25 10:42:06;;;;;;;4.80;4.40;;;6.50;99.90;;;6.56;99.62;99550.44;4955818;28;20664;-64
2021/12/25 10:44:37;;;;;;;2.37;2.17;;;6.50;99.90;;;6.49;98.09;99546.63;4972510;28;21250;-67
2021/12/25 10:47:08;;;;;;;2.50;2.30;;;6.50;99.90;;;6.40;97.14;99555.06;4955113;28;20630;-64
2021/12/25 10:49:43;;;;;;;4.05;3.60;;;6.40;99.90;;;6.45;97.63;99550.38;4957304;28;20643;-64
2021/12/25 10:52:11;;;;;;;8.50;2.83;;;6.40;99.90;;;6.51;98.01;99562.91;4972043;28;20227;-66
2021/12/25 10:54:46;;;;;;;2.30;1.60;;;6.40;99.90;;;6.49;96.35;99565.59;4981266;28;20655;-66
2021/12/25 10:57:58;;;;;;;3.13;2.60;;;6.40;99.90;;;6.40;96.89;99557.66;4968966;28;20717;-67
2021/12/25 11:00:29;;;;;;;3.43;3.20;;;6.30;99.90;;;6.28;97.56;99555.94;4973207;28;20701;-64
2021/12/25 11:03:08;;;;;;;3.17;2.97;;;6.30;99.90;;;6.39;98.57;99556.00;4968297;28;20641;-64
2021/12/25 11:05:44;;;;;;;3.13;2.93;;;6.30;99.90;;;6.37;98.25;99548.31;4973213;28;20638;-65
2021/12/25 11:08:16;;;;;;;2.13;2.00;;;6.40;99.90;;;6.30;97.90;99559.25;4970072;28;20741;-64
2021/12/25 11:10:48;;;;;;;3.08;2.88;;;6.20;99.90;;;6.22;97.45;99544.25;4973202;28;20216;-64
2021/12/25 11:13:33;;;;;;;2.93;2.43;;;6.20;99.90;;;6.14;98.05;99562.09;4974471;28;20259;-66
2021/12/25 11:16:14;;;;;;;2.50;2.40;;;6.10;99.90;;;6.13;97.36;99555.28;4941258;28;20642;-64
2021/12/25 11:19:19;;;;;;;1.95;1.85;;;6.10;99.90;;;6.09;98.17;99553.84;4975067;28;20294;-64
2021/12/25 11:21:47;;;;;;;2.53;2.40;;;6.10;99.90;;;6.13;98.11;99563.84;4973640;28;20238;-65
2021/12/25 11:24:20;;;;;;;3.05;2.40;;;6.10;99.90;;;6.13;98.74;99571.63;4972789;28;20294;-66
2021/12/25 11:27:00;;;;;;;2.50;1.83;;;6.10;99.90;;;6.13;98.36;99566.44;4962542;28;20214;-64
2021/12/25 11:29:31;;;;;;;3.33;2.50;;;6.10;99.90;;;6.09;98.72;99574.56;4973268;28;20627;-65
2021/12/25 11:31:59;;;;;;;2.90;2.65;;;6.10;99.90;;;6.12;98.01;99569.97;4973313;28;21201;-66
2021/12/25 11:34:28;;;;;;;1.50;1.40;;;6.10;99.90;;;6.15;98.86;99574.91;4955342;28;20231;-65
2021/12/25 11:36:57;;;;;;;2.03;1.92;;;6.10;99.90;;;6.09;98.49;99565.00;4974165;28;21024;-67
2021/12/25 11:39:27;;;;;;;2.60;2.40;;;6.00;99.90;;;5.93;98.48;99558.41;4972851;28;20235;-68
2021/12/25 11:42:01;;;;;;;2.92;2.72;;;5.90;99.90;;;5.91;99.06;99555.94;4972714;28;21269;-66
2021/12/25 11:44:45;;;;;;;3.33;3.03;;;5.80;99.90;;;5.98;100.00;99557.19;4954590;28;20306;-64
2021/12/25 11:47:36;;;;;;;3.78;3.47;;;5.90;99.90;;;5.87;99.43;99557.09;4971521;28;20196;-65
2021/12/25 11:50:16;;;;;;;4.17;2.80;;;5.80;99.90;;;6.03;98.83;99560.25;4973265;28;20740;-65
2021/12/25 11:53:04;;;;;;;2.58;2.35;;;5.90;99.90;;;5.97;98.11;99555.50;4974124;28;20717;-68
2021/12/25 11:58:37;;;;;;;6.75;4.60;;;5.90;99.90;;;5.78;96.97;99546.50;4953551;28;20613;-68